createdAt,value
2019-06-01T00:00:11.298Z,62.15
2019-06-01T00:02:35.678Z,61.94
2019-06-01T00:05:07.634Z,61.83
2019-06-01T00:07:35.926Z,61.94
2019-06-01T00:10:06.136Z,62.57
2019-06-01T00:12:34.445Z,62.67
2019-06-01T00:15:03.490Z,62.35
2019-06-01T00:17:31.785Z,62.19
2019-06-01T00:20:01.505Z,62.29
2019-06-01T00:22:29.764Z,62.51
2019-06-01T00:24:58.104Z,62.78
2019-06-01T00:27:26.394Z,62.33
2019-06-01T00:29:54.729Z,62.17
2019-06-01T00:32:23.064Z,62.57
2019-06-01T00:34:51.885Z,62.51
2019-06-01T00:37:20.391Z,63.00
2019-06-01T00:39:49.877Z,63.45
2019-06-01T00:42:18.904Z,62.92
2019-06-01T00:44:48.460Z,62.65
2019-06-01T00:47:16.955Z,63.19
2019-06-01T00:49:45.265Z,63.23
2019-06-01T00:52:13.588Z,63.06
2019-06-01T00:54:43.094Z,63.05
2019-06-01T00:57:11.584Z,63.19
2019-06-01T00:59:39.872Z,63.48
2019-06-01T01:02:08.358Z,63.38
2019-06-01T01:04:36.647Z,63.21
2019-06-01T01:07:05.177Z,63.65
2019-06-01T01:09:33.481Z,63.48
2019-06-01T01:12:01.808Z,63.50
2019-06-01T01:14:33.460Z,63.45
2019-06-01T01:17:01.763Z,63.98
2019-06-01T01:19:30.121Z,63.91
2019-06-01T01:21:59.003Z,63.88
2019-06-01T01:24:27.357Z,63.88
2019-06-01T01:26:56.811Z,63.91
2019-06-01T01:29:25.299Z,63.98
2019-06-01T01:31:53.625Z,64.43
2019-06-01T01:34:21.990Z,64.56
2019-06-01T01:36:50.320Z,64.42
2019-06-01T01:39:18.665Z,64.38
2019-06-01T01:41:48.016Z,64.42
2019-06-01T01:44:16.334Z,64.68
2019-06-01T01:46:44.905Z,64.89
2019-06-01T01:49:13.189Z,65.07
2019-06-01T01:51:41.612Z,65.23
2019-06-01T01:54:09.998Z,64.98
2019-06-01T01:56:38.340Z,65.71
2019-06-01T01:59:06.660Z,66.07
2019-06-01T02:01:34.938Z,65.44
2019-06-01T02:04:03.460Z,65.27
2019-06-01T02:06:31.743Z,65.22
2019-06-01T02:09:01.756Z,65.08
2019-06-01T02:11:30.292Z,65.43
2019-06-01T02:13:59.779Z,65.73
2019-06-01T02:16:28.303Z,65.38
2019-06-01T02:18:57.505Z,65.09
2019-06-01T02:21:26.623Z,65.17
2019-06-01T02:23:55.034Z,65.10
2019-06-01T02:26:23.327Z,66.16
2019-06-01T02:28:53.124Z,66.09
2019-06-01T02:31:37.455Z,66.48
2019-06-01T02:33:51.573Z,66.52
2019-06-01T02:36:19.868Z,66.40
2019-06-01T02:38:48.286Z,66.44
2019-06-01T02:41:16.894Z,66.28
2019-06-01T02:43:45.418Z,65.85
2019-06-01T02:46:13.703Z,65.82
2019-06-01T02:48:42.012Z,65.74
2019-06-01T02:51:10.375Z,65.75
2019-06-01T02:53:38.683Z,65.74
2019-06-01T02:56:07.052Z,65.83
2019-06-01T02:58:35.667Z,65.86
2019-06-01T03:01:13.167Z,65.74
2019-06-01T03:03:42.142Z,65.74
2019-06-01T03:06:12.719Z,65.82
2019-06-01T03:08:41.946Z,65.95
2019-06-01T03:11:11.836Z,66.01
2019-06-01T03:13:40.493Z,66.07
2019-06-01T03:16:10.064Z,66.07
2019-06-01T03:18:39.939Z,66.85
2019-06-01T03:21:09.299Z,66.54
2019-06-01T03:23:39.127Z,66.46
2019-06-01T03:26:08.774Z,66.74
2019-06-01T03:28:40.171Z,66.66
2019-06-01T03:31:10.487Z,66.51
2019-06-01T03:33:38.652Z,66.55
2019-06-01T03:36:07.115Z,66.91
2019-06-01T03:38:35.486Z,67.59
2019-06-01T03:41:04.206Z,67.39
2019-06-01T03:43:32.624Z,67.15
2019-06-01T03:46:02.478Z,67.01
2019-06-01T03:48:30.973Z,67.25
2019-06-01T03:50:59.366Z,67.65
2019-06-01T03:53:27.682Z,67.43
2019-06-01T03:55:55.991Z,67.17
2019-06-01T03:58:24.342Z,67.08
2019-06-01T04:00:52.658Z,66.97
2019-06-01T04:03:21.111Z,67.23
2019-06-01T04:05:49.595Z,67.23
2019-06-01T04:08:17.878Z,67.65
2019-06-01T04:10:46.227Z,67.50
2019-06-01T04:13:14.527Z,68.00
2019-06-01T04:15:42.985Z,68.28
2019-06-01T04:18:13.916Z,68.78
2019-06-01T04:20:42.267Z,68.77
2019-06-01T04:23:10.779Z,68.42
2019-06-01T04:25:39.138Z,68.54
2019-06-01T04:28:10.285Z,68.93
2019-06-01T04:30:38.684Z,69.27
2019-06-01T04:33:07.078Z,68.75
2019-06-01T04:35:35.491Z,68.50
2019-06-01T04:38:05.009Z,68.40
2019-06-01T04:40:33.459Z,68.29
2019-06-01T04:43:01.801Z,68.46
2019-06-01T04:45:30.102Z,68.06
2019-06-01T04:47:58.483Z,67.75
2019-06-01T04:50:26.842Z,67.94
2019-06-01T04:52:55.166Z,68.21
2019-06-01T04:55:23.451Z,68.12
2019-06-01T04:57:51.784Z,68.23
2019-06-01T05:00:27.252Z,68.32
2019-06-01T05:03:04.477Z,68.77
2019-06-01T05:05:20.527Z,68.90
2019-06-01T05:07:48.926Z,68.50
2019-06-01T05:10:17.309Z,68.74
2019-06-01T05:12:45.992Z,68.48
2019-06-01T05:15:16.703Z,68.70
2019-06-01T05:17:45.075Z,68.80
2019-06-01T05:20:16.611Z,68.06
2019-06-01T05:22:45.023Z,67.71
2019-06-01T05:25:13.731Z,67.71
2019-06-01T05:27:43.553Z,67.85
2019-06-01T05:30:13.686Z,67.67
2019-06-01T05:32:42.201Z,67.91
2019-06-01T05:35:11.788Z,67.90
2019-06-01T05:37:40.530Z,68.02
2019-06-01T05:40:12.746Z,68.26
2019-06-01T05:42:41.033Z,68.21
2019-06-01T05:45:11.275Z,67.73
2019-06-01T05:47:40.052Z,67.83
2019-06-01T05:50:08.749Z,67.87
2019-06-01T05:52:37.364Z,67.47
2019-06-01T05:55:06.814Z,67.65
2019-06-01T05:57:35.116Z,67.80
2019-06-01T06:00:05.615Z,68.02
2019-06-01T06:02:34.009Z,68.19
2019-06-01T06:05:02.345Z,68.56
2019-06-01T06:07:30.650Z,68.91
2019-06-01T06:09:58.995Z,68.59
2019-06-01T06:12:27.389Z,68.50
2019-06-01T06:14:55.701Z,68.50
2019-06-01T06:17:24.536Z,67.75
2019-06-01T06:19:53.077Z,67.45
2019-06-01T06:22:22.406Z,66.40
2019-06-01T06:24:51.110Z,66.35
2019-06-01T06:27:20.626Z,66.40
2019-06-01T06:29:49.107Z,66.76
2019-06-01T06:32:17.485Z,66.43
2019-06-01T06:34:45.780Z,65.92
2019-06-01T06:37:14.107Z,64.86
2019-06-01T06:39:42.424Z,64.39
2019-06-01T06:42:10.928Z,63.68
2019-06-01T06:44:39.248Z,63.47
2019-06-01T06:47:07.589Z,63.39
2019-06-01T06:49:36.047Z,62.86
2019-06-01T06:52:04.533Z,62.54
2019-06-01T06:54:32.972Z,62.29
2019-06-01T06:57:01.384Z,61.74
2019-06-01T06:59:29.664Z,61.21
2019-06-01T07:01:58.073Z,60.71
2019-06-01T07:04:27.493Z,58.57
2019-06-01T07:06:55.997Z,57.35
2019-06-01T07:09:24.392Z,57.88
2019-06-01T07:11:52.789Z,57.52
2019-06-01T07:14:21.310Z,56.86
2019-06-01T07:16:49.703Z,56.42
2019-06-01T07:19:17.977Z,56.58
2019-06-01T07:21:46.540Z,57.22
2019-06-01T07:24:14.932Z,57.82
2019-06-01T07:26:43.344Z,57.01
2019-06-01T07:29:11.605Z,55.73
2019-06-01T07:31:39.918Z,56.03
2019-06-01T07:34:08.276Z,56.34
2019-06-01T07:36:36.700Z,56.35
2019-06-01T07:39:06.865Z,56.16
2019-06-01T07:41:35.276Z,56.17
2019-06-01T07:44:04.396Z,55.63
2019-06-01T07:46:33.236Z,55.69
2019-06-01T07:49:01.771Z,55.14
2019-06-01T07:51:31.568Z,54.13
2019-06-01T07:54:00.113Z,54.79
2019-06-01T07:56:28.717Z,54.87
2019-06-01T07:58:57.053Z,54.84
2019-06-01T08:01:27.139Z,54.10
2019-06-01T08:03:55.557Z,53.71
2019-06-01T08:06:25.690Z,54.27
2019-06-01T08:08:54.106Z,53.93
2019-06-01T08:11:25.492Z,54.70
2019-06-01T08:13:52.884Z,54.51
2019-06-01T08:16:21.425Z,53.84
2019-06-01T08:18:53.075Z,54.27
2019-06-01T08:21:20.076Z,52.93
2019-06-01T08:23:48.394Z,53.54
2019-06-01T08:26:19.963Z,52.91
2019-06-01T08:28:46.825Z,52.02
2019-06-01T08:31:15.185Z,50.77
2019-06-01T08:33:43.531Z,50.89
2019-06-01T08:36:11.830Z,50.66
2019-06-01T08:38:40.151Z,50.66
2019-06-01T08:41:08.525Z,49.51
2019-06-01T08:43:36.907Z,49.61
2019-06-01T08:46:05.308Z,48.89
2019-06-01T08:48:34.099Z,48.03
2019-06-01T08:51:02.671Z,46.60
2019-06-01T08:53:32.168Z,46.14
2019-06-01T08:56:00.793Z,46.24
2019-06-01T08:58:30.138Z,45.37
2019-06-01T09:00:58.653Z,46.25
2019-06-01T09:03:27.744Z,45.53
2019-06-01T09:05:56.301Z,45.46
2019-06-01T09:08:26.004Z,44.79
2019-06-01T09:10:56.126Z,44.76
2019-06-01T09:13:25.119Z,44.95
2019-06-01T09:15:53.511Z,44.19
2019-06-01T09:18:21.787Z,42.72
2019-06-01T09:20:50.173Z,42.48
2019-06-01T09:23:18.613Z,43.27
2019-06-01T09:25:46.934Z,43.26
2019-06-01T09:28:15.210Z,42.96
2019-06-01T09:30:43.912Z,41.10
2019-06-01T09:33:12.268Z,40.95
2019-06-01T09:35:54.228Z,41.22
2019-06-01T09:38:10.652Z,41.81
2019-06-01T09:40:39.043Z,41.43
2019-06-01T09:43:07.493Z,41.01
2019-06-01T09:45:36.348Z,40.54
2019-06-01T09:48:05.260Z,39.91
2019-06-01T09:50:33.580Z,40.39
2019-06-01T09:53:01.901Z,39.85
2019-06-01T09:55:31.382Z,39.81
2019-06-01T09:58:00.379Z,39.74
2019-06-01T10:00:28.759Z,40.32
2019-06-01T10:02:57.060Z,40.26
2019-06-01T10:05:25.415Z,38.53
2019-06-01T10:07:53.734Z,39.00
2019-06-01T10:10:22.095Z,38.57
2019-06-01T10:12:50.442Z,39.62
2019-06-01T10:15:18.849Z,39.14
2019-06-01T10:17:47.234Z,37.13
2019-06-01T10:20:16.205Z,37.58
2019-06-01T10:22:44.494Z,38.24
2019-06-01T10:25:12.928Z,37.75
2019-06-01T10:27:42.759Z,36.78
2019-06-01T10:30:13.101Z,37.23
2019-06-01T10:32:42.164Z,35.78
2019-06-01T10:35:10.568Z,36.07
2019-06-01T10:37:39.697Z,35.64
2019-06-01T10:40:08.349Z,35.38
2019-06-01T10:42:38.098Z,34.13
2019-06-01T10:45:07.039Z,34.47
2019-06-01T10:47:36.033Z,34.55
2019-06-01T10:50:06.297Z,34.27
2019-06-01T10:52:36.092Z,34.41
2019-06-01T10:55:06.249Z,35.38
2019-06-01T10:57:34.750Z,35.98
2019-06-01T11:00:04.214Z,34.65
2019-06-01T11:02:32.622Z,35.15
2019-06-01T11:05:00.918Z,34.61
2019-06-01T11:07:29.463Z,34.82
2019-06-01T11:09:57.810Z,34.30
2019-06-01T11:12:26.118Z,35.90
2019-06-01T11:14:54.550Z,34.97
2019-06-01T11:17:22.975Z,33.60
2019-06-01T11:19:51.279Z,34.52
2019-06-01T11:22:19.831Z,34.47
2019-06-01T11:24:48.205Z,33.78
2019-06-01T11:27:16.574Z,35.23
2019-06-01T11:29:50.969Z,34.45
2019-06-01T11:32:15.105Z,34.19
2019-06-01T11:34:44.507Z,35.15
2019-06-01T11:37:15.444Z,33.50
2019-06-01T11:39:43.018Z,33.74
2019-06-01T11:42:11.417Z,34.33
2019-06-01T11:44:40.711Z,33.92
2019-06-01T11:47:09.074Z,33.73
2019-06-01T11:49:38.630Z,33.78
2019-06-01T11:52:07.060Z,33.16
2019-06-01T11:54:35.461Z,32.70
2019-06-01T11:57:04.065Z,31.81
2019-06-01T11:59:32.476Z,32.30
2019-06-01T12:02:00.874Z,31.30
2019-06-01T12:04:29.274Z,31.87
2019-06-01T12:07:13.700Z,31.02
2019-06-01T12:09:27.615Z,31.67
2019-06-01T12:11:55.907Z,31.33
2019-06-01T12:14:24.319Z,30.63
2019-06-01T12:16:52.594Z,29.21
2019-06-01T12:19:21.211Z,29.91
2019-06-01T12:21:49.590Z,30.42
2019-06-01T12:24:17.979Z,30.12
2019-06-01T12:26:47.499Z,30.68
2019-06-01T12:29:15.995Z,30.58
2019-06-01T12:31:44.332Z,31.22
2019-06-01T12:34:12.704Z,30.41
2019-06-01T12:36:42.574Z,30.90
2019-06-01T12:39:11.062Z,29.47
2019-06-01T12:41:39.781Z,30.10
2019-06-01T12:44:09.953Z,29.89
2019-06-01T12:46:39.676Z,30.08
2019-06-01T12:49:08.261Z,30.11
2019-06-01T12:51:36.658Z,29.70
2019-06-01T12:54:09.547Z,31.66
2019-06-01T12:56:37.949Z,30.77
2019-06-01T12:59:06.304Z,31.62
2019-06-01T13:01:34.712Z,29.30
2019-06-01T13:04:03.184Z,28.67
2019-06-01T13:06:31.566Z,27.75
2019-06-01T13:08:59.950Z,27.27
2019-06-01T13:11:28.358Z,25.88
2019-06-01T13:13:56.753Z,25.75
2019-06-01T13:16:25.254Z,25.93
2019-06-01T13:18:53.920Z,26.35
2019-06-01T13:21:22.421Z,25.83
2019-06-01T13:23:51.606Z,26.49
2019-06-01T13:26:19.967Z,26.52
2019-06-01T13:28:48.376Z,27.96
2019-06-01T13:31:16.682Z,26.77
2019-06-01T13:33:46.373Z,26.65
2019-06-01T13:36:14.745Z,27.03
2019-06-01T13:38:43.071Z,27.19
2019-06-01T13:41:11.559Z,27.23
2019-06-01T13:43:39.925Z,27.78
2019-06-01T13:46:08.209Z,27.06
2019-06-01T13:48:36.599Z,27.39
2019-06-01T13:51:05.042Z,27.51
2019-06-01T13:53:33.429Z,26.90
2019-06-01T13:56:01.731Z,27.49
2019-06-01T13:58:30.071Z,27.24
2019-06-01T14:00:58.449Z,26.94
2019-06-01T14:03:26.894Z,28.23
2019-06-01T14:05:55.443Z,28.22
2019-06-01T14:08:29.036Z,27.98
2019-06-01T14:10:53.857Z,27.49
2019-06-01T14:13:22.205Z,27.38
2019-06-01T14:15:51.569Z,27.26
2019-06-01T14:18:20.148Z,26.74
2019-06-01T14:20:49.654Z,26.63
2019-06-01T14:23:18.288Z,26.87
2019-06-01T14:25:46.588Z,27.25
2019-06-01T14:28:14.910Z,27.15
2019-06-01T14:30:43.290Z,26.90
2019-06-01T14:33:11.580Z,26.75
2019-06-01T14:35:40.027Z,27.24
2019-06-01T14:38:08.408Z,27.34
2019-06-01T14:40:36.737Z,27.78
2019-06-01T14:43:05.104Z,26.59
2019-06-01T14:45:33.524Z,26.80
2019-06-01T14:48:01.851Z,27.11
2019-06-01T14:50:30.243Z,28.24
2019-06-01T14:52:58.608Z,27.66
2019-06-01T14:55:27.005Z,26.94
2019-06-01T14:57:56.008Z,28.02
2019-06-01T15:00:24.388Z,27.72
2019-06-01T15:02:52.762Z,28.35
2019-06-01T15:05:21.156Z,26.77
2019-06-01T15:07:50.161Z,27.79
2019-06-01T15:10:18.916Z,27.56
2019-06-01T15:12:51.542Z,28.79
2019-06-01T15:15:17.535Z,28.15
2019-06-01T15:17:45.904Z,28.11
2019-06-01T15:20:14.566Z,28.05
2019-06-01T15:22:42.994Z,27.46
2019-06-01T15:25:11.581Z,27.74
2019-06-01T15:27:39.986Z,28.34
2019-06-01T15:30:12.549Z,28.60
2019-06-01T15:32:40.906Z,28.37
2019-06-01T15:35:09.791Z,28.01
2019-06-01T15:37:38.230Z,28.08
2019-06-01T15:40:10.432Z,28.77
2019-06-01T15:42:38.864Z,28.26
2019-06-01T15:45:07.951Z,28.23
2019-06-01T15:47:36.429Z,28.52
2019-06-01T15:50:07.612Z,29.26
2019-06-01T15:52:36.018Z,29.00
2019-06-01T15:55:06.027Z,29.23
2019-06-01T15:57:34.758Z,30.03
2019-06-01T16:00:04.999Z,29.81
2019-06-01T16:02:33.411Z,29.85
2019-06-01T16:05:01.698Z,30.08
2019-06-01T16:07:30.101Z,30.13
2019-06-01T16:09:59.378Z,29.66
2019-06-01T16:12:27.923Z,29.32
2019-06-01T16:14:57.587Z,29.58
2019-06-01T16:17:26.065Z,29.01
2019-06-01T16:19:55.780Z,28.79
2019-06-01T16:22:24.343Z,28.09
2019-06-01T16:24:53.971Z,27.99
2019-06-01T16:27:22.461Z,27.94
2019-06-01T16:29:50.829Z,28.39
2019-06-01T16:32:19.128Z,28.53
2019-06-01T16:34:47.561Z,29.13
2019-06-01T16:37:15.932Z,28.82
2019-06-01T16:39:58.259Z,29.41
2019-06-01T16:42:14.374Z,28.56
2019-06-01T16:44:42.714Z,28.54
2019-06-01T16:47:11.113Z,28.72
2019-06-01T16:49:39.488Z,28.60
2019-06-01T16:52:07.860Z,28.63
2019-06-01T16:54:36.227Z,28.91
2019-06-01T16:57:05.329Z,28.61
2019-06-01T16:59:33.854Z,28.83
2019-06-01T17:02:03.393Z,29.35
2019-06-01T17:04:31.840Z,29.65
2019-06-01T17:07:00.694Z,29.92
2019-06-01T17:09:29.190Z,30.26
2019-06-01T17:11:58.677Z,30.56
2019-06-01T17:14:27.156Z,30.51
2019-06-01T17:16:57.081Z,30.75
2019-06-01T17:19:25.566Z,30.43
2019-06-01T17:21:53.990Z,30.09
2019-06-01T17:24:22.391Z,30.25
2019-06-01T17:26:50.766Z,30.58
2019-06-01T17:29:19.090Z,31.09
2019-06-01T17:31:54.443Z,30.97
2019-06-01T17:34:17.594Z,31.64
2019-06-01T17:36:45.963Z,31.47
2019-06-01T17:39:14.751Z,31.35
2019-06-01T17:41:43.138Z,31.44
2019-06-01T17:44:11.447Z,31.06
2019-06-01T17:46:53.025Z,31.50
2019-06-01T17:49:09.887Z,31.93
2019-06-01T17:51:38.173Z,32.60
2019-06-01T17:54:08.034Z,33.40
2019-06-01T17:56:36.762Z,32.36
2019-06-01T17:59:05.482Z,32.51
2019-06-01T18:01:33.811Z,32.23
2019-06-01T18:04:02.170Z,34.19
2019-06-01T18:06:30.593Z,32.51
2019-06-01T18:08:58.909Z,32.56
2019-06-01T18:11:27.399Z,32.86
2019-06-01T18:13:55.734Z,33.21
2019-06-01T18:16:24.140Z,33.57
2019-06-01T18:18:52.436Z,33.75
2019-06-01T18:21:20.902Z,33.85
2019-06-01T18:23:49.426Z,34.80
2019-06-01T18:26:17.747Z,35.42
2019-06-01T18:28:46.113Z,36.40
2019-06-01T18:31:20.316Z,35.74
2019-06-01T18:33:48.689Z,35.29
2019-06-01T18:36:17.020Z,35.24
2019-06-01T18:38:45.312Z,35.08
2019-06-01T18:41:18.376Z,35.40
2019-06-01T18:43:43.858Z,35.64
2019-06-01T18:46:12.483Z,35.64
2019-06-01T18:48:40.865Z,35.36
2019-06-01T18:51:10.133Z,36.00
2019-06-01T18:53:38.834Z,36.68
2019-06-01T18:56:08.155Z,37.60
2019-06-01T18:58:36.622Z,38.35
2019-06-01T19:01:06.379Z,38.61
2019-06-01T19:03:34.960Z,38.85
2019-06-01T19:06:03.294Z,39.19
2019-06-01T19:08:31.597Z,39.50
2019-06-01T19:10:59.999Z,40.02
2019-06-01T19:13:28.292Z,40.54
2019-06-01T19:15:56.875Z,40.32
2019-06-01T19:18:25.183Z,40.67
2019-06-01T19:20:53.594Z,41.14
2019-06-01T19:23:22.981Z,42.18
2019-06-01T19:25:51.490Z,42.44
2019-06-01T19:28:19.839Z,42.79
2019-06-01T19:30:48.325Z,43.35
2019-06-01T19:33:18.937Z,42.90
2019-06-01T19:35:46.732Z,42.40
2019-06-01T19:38:15.584Z,42.67
2019-06-01T19:40:44.083Z,43.27
2019-06-01T19:43:13.468Z,43.26
2019-06-01T19:45:41.827Z,43.45
2019-06-01T19:48:10.312Z,43.35
2019-06-01T19:50:38.685Z,43.40
2019-06-01T19:53:08.701Z,43.23
2019-06-01T19:55:37.243Z,43.31
2019-06-01T19:58:05.651Z,44.02
2019-06-01T20:00:34.036Z,44.25
2019-06-01T20:03:02.602Z,44.22
2019-06-01T20:05:30.999Z,44.32
2019-06-01T20:07:59.549Z,44.52
2019-06-01T20:10:27.941Z,44.87
2019-06-01T20:12:56.299Z,45.24
2019-06-01T20:15:24.638Z,45.51
2019-06-01T20:17:53.105Z,46.33
2019-06-01T20:20:21.590Z,45.78
2019-06-01T20:22:50.100Z,46.21
2019-06-01T20:25:20.115Z,46.40
2019-06-01T20:27:48.409Z,47.11
2019-06-01T20:30:17.975Z,47.43
2019-06-01T20:32:46.342Z,47.51
2019-06-01T20:35:15.966Z,47.62
2019-06-01T20:37:44.484Z,47.95
2019-06-01T20:40:14.108Z,47.87
2019-06-01T20:42:42.567Z,47.74
2019-06-01T20:45:12.542Z,47.86
2019-06-01T20:47:40.923Z,48.12
2019-06-01T20:50:10.145Z,48.41
2019-06-01T20:52:38.607Z,48.33
2019-06-01T20:55:07.852Z,48.52
2019-06-01T20:57:36.381Z,49.09
2019-06-01T21:00:11.135Z,48.86
2019-06-01T21:02:39.899Z,49.44
2019-06-01T21:05:08.677Z,49.68
2019-06-01T21:07:37.335Z,49.40
2019-06-01T21:10:07.386Z,48.32
2019-06-01T21:12:44.761Z,48.51
2019-06-01T21:15:06.396Z,48.83
2019-06-01T21:17:34.692Z,49.39
2019-06-01T21:20:05.247Z,50.18
2019-06-01T21:22:33.616Z,50.25
2019-06-01T21:25:02.052Z,50.54
2019-06-01T21:27:30.437Z,50.26
2019-06-01T21:29:58.719Z,51.01
2019-06-01T21:32:27.058Z,51.30
2019-06-01T21:34:55.427Z,51.37
2019-06-01T21:37:24.006Z,51.23
2019-06-01T21:39:52.379Z,51.65
2019-06-01T21:42:21.719Z,51.80
2019-06-01T21:44:50.190Z,51.82
2019-06-01T21:47:19.612Z,51.98
2019-06-01T21:49:48.019Z,51.94
2019-06-01T21:52:16.332Z,52.01
2019-06-01T21:54:44.742Z,52.63
2019-06-01T21:57:13.203Z,52.48
2019-06-01T21:59:41.811Z,53.06
2019-06-01T22:02:10.448Z,52.90
2019-06-01T22:04:38.988Z,53.33
2019-06-01T22:07:07.321Z,53.00
2019-06-01T22:09:35.640Z,53.06
2019-06-01T22:12:04.201Z,52.92
2019-06-01T22:14:32.504Z,53.12
2019-06-01T22:17:01.171Z,53.37
2019-06-01T22:19:29.588Z,53.41
2019-06-01T22:21:57.905Z,53.74
2019-06-01T22:24:26.202Z,53.50
2019-06-01T22:26:54.574Z,53.81
2019-06-01T22:29:24.312Z,53.82
2019-06-01T22:31:52.758Z,53.78
2019-06-01T22:34:21.129Z,53.96
2019-06-01T22:36:49.701Z,54.45
2019-06-01T22:39:19.372Z,54.51
2019-06-01T22:41:48.068Z,54.86
2019-06-01T22:44:16.393Z,54.78
2019-06-01T22:46:44.845Z,55.23
2019-06-01T22:49:13.247Z,55.31
2019-06-01T22:51:41.524Z,54.99
2019-06-01T22:54:09.867Z,55.33
2019-06-01T22:56:38.212Z,55.35
2019-06-01T22:59:06.603Z,55.06
2019-06-01T23:01:34.907Z,55.48
2019-06-01T23:04:03.228Z,55.39
2019-06-01T23:06:31.529Z,55.58
2019-06-01T23:08:59.860Z,55.31
2019-06-01T23:11:29.604Z,55.44
2019-06-01T23:13:58.147Z,55.49
2019-06-01T23:16:27.591Z,55.41
2019-06-01T23:18:55.976Z,55.77
2019-06-01T23:21:24.293Z,55.58
2019-06-01T23:23:52.619Z,56.05
2019-06-01T23:26:22.090Z,56.17
2019-06-01T23:28:50.624Z,56.28
2019-06-01T23:31:18.995Z,56.28
2019-06-01T23:33:47.381Z,56.35
2019-06-01T23:36:15.747Z,56.42
2019-06-01T23:38:44.064Z,56.42
2019-06-01T23:41:12.391Z,56.58
2019-06-01T23:43:40.739Z,56.86
2019-06-01T23:46:09.323Z,56.93
2019-06-01T23:48:37.608Z,56.98
2019-06-01T23:51:06.014Z,57.03
2019-06-01T23:53:34.411Z,57.23
2019-06-01T23:56:02.863Z,57.59
2019-06-01T23:58:32.519Z,57.75
